Bauerfield Efate, Vanuatu
Current Conditions -  °F | °C
As of 6:00 PM on Friday 28 Nov 2014 (Local Time) from NVVV Reporting Station
Broken Clouds Broken Clouds  
Wind Chill: 77°   Ceiling: 4000
Heat Index: 78°   Visibility: 6mi
Dew Point: 72°   Wind: 10mph
Humidity: 83%   Direction: 110°ESE
Pressure: 29.77"   Gusts: NA
Location:  17.7°S, 168.3°E
Report Text: NVVV 280700Z 11009KT 9999 SCT020 BKN040 25/22 Q1008 RMK NIL
Loading
Personal Weather Stations






























Interactive Weather Map New forecast layout! Learn more

10-Day Weather Forecast

Advertisements
Track Severe Weather on mobile